Terminal Aerodrome Forecast
Issued by NWS

Home | Current Version | Previous Version | Text Only | Print | Product List | Glossary On
Versions: 1 2 3 4 5 6 7 8 9 10 11 12 13
000
FTUS42 KMLB 161100
TAFFPR
TAF
KFPR 161130Z 1612/1712 01010KT P6SM VCSH OVC015
     FM161400 04011G20KT P6SM BKN030 BKN040
     FM162300 08012KT P6SM -SHRA BKN020 OVC030=

USA.gov is the U.S. government's official web portal to all federal, state and local government web resources and services.